sensor_id;sensor_type;location;lat;lon;timestamp;P1;durP1;ratioP1;P2;durP2;ratioP2
20729;SDS011;10526;50.850;12.928;2023-04-15T00:03:06;17.02;;;9.98;;
20729;SDS011;10526;50.850;12.928;2023-04-15T00:07:29;17.58;;;10.40;;
20729;SDS011;10526;50.850;12.928;2023-04-15T00:11:51;17.27;;;10.60;;
20729;SDS011;10526;50.850;12.928;2023-04-15T00:16:13;20.80;;;12.13;;
20729;SDS011;10526;50.850;12.928;2023-04-15T00:20:35;18.63;;;11.13;;
20729;SDS011;10526;50.850;12.928;2023-04-15T00:24:58;19.55;;;11.50;;
20729;SDS011;10526;50.850;12.928;2023-04-15T00:29:20;19.48;;;10.75;;
20729;SDS011;10526;50.850;12.928;2023-04-15T00:33:42;18.05;;;10.02;;
20729;SDS011;10526;50.850;12.928;2023-04-15T00:38:05;16.50;;;9.40;;
20729;SDS011;10526;50.850;12.928;2023-04-15T00:42:28;15.68;;;9.05;;
20729;SDS011;10526;50.850;12.928;2023-04-15T00:46:50;16.40;;;8.98;;
20729;SDS011;10526;50.850;12.928;2023-04-15T00:51:13;15.40;;;8.50;;
20729;SDS011;10526;50.850;12.928;2023-04-15T00:55:36;14.43;;;7.70;;
20729;SDS011;10526;50.850;12.928;2023-04-15T00:59:59;16.33;;;8.95;;
20729;SDS011;10526;50.850;12.928;2023-04-15T01:04:22;15.95;;;9.18;;
20729;SDS011;10526;50.850;12.928;2023-04-15T01:08:44;16.90;;;9.23;;
20729;SDS011;10526;50.850;12.928;2023-04-15T01:13:06;16.58;;;9.18;;
20729;SDS011;10526;50.850;12.928;2023-04-15T01:17:29;16.65;;;8.90;;
20729;SDS011;10526;50.850;12.928;2023-04-15T01:21:51;15.18;;;7.47;;
20729;SDS011;10526;50.850;12.928;2023-04-15T01:26:14;13.35;;;7.25;;
20729;SDS011;10526;50.850;12.928;2023-04-15T01:30:39;12.95;;;6.30;;
20729;SDS011;10526;50.850;12.928;2023-04-15T01:35:01;13.32;;;7.07;;
20729;SDS011;10526;50.850;12.928;2023-04-15T01:39:23;12.30;;;6.45;;
20729;SDS011;10526;50.850;12.928;2023-04-15T01:43:45;13.40;;;6.25;;
20729;SDS011;10526;50.850;12.928;2023-04-15T01:48:07;12.82;;;6.40;;
20729;SDS011;10526;50.850;12.928;2023-04-15T01:52:31;12.57;;;6.15;;
20729;SDS011;10526;50.850;12.928;2023-04-15T01:56:54;13.00;;;6.40;;
20729;SDS011;10526;50.850;12.928;2023-04-15T02:01:18;12.43;;;6.35;;
20729;SDS011;10526;50.850;12.928;2023-04-15T02:05:40;12.80;;;6.85;;
20729;SDS011;10526;50.850;12.928;2023-04-15T02:10:03;13.32;;;6.80;;
20729;SDS011;10526;50.850;12.928;2023-04-15T02:14:28;13.18;;;6.72;;
20729;SDS011;10526;50.850;12.928;2023-04-15T02:18:50;13.18;;;6.40;;
20729;SDS011;10526;50.850;12.928;2023-04-15T02:23:13;12.90;;;6.85;;
20729;SDS011;10526;50.850;12.928;2023-04-15T02:27:37;13.05;;;6.60;;
20729;SDS011;10526;50.850;12.928;2023-04-15T02:31:59;14.25;;;7.32;;
20729;SDS011;10526;50.850;12.928;2023-04-15T02:36:21;14.88;;;8.13;;
20729;SDS011;10526;50.850;12.928;2023-04-15T02:40:44;14.98;;;8.25;;
20729;SDS011;10526;50.850;12.928;2023-04-15T02:45:07;16.73;;;9.65;;
20729;SDS011;10526;50.850;12.928;2023-04-15T02:49:29;18.77;;;9.75;;
20729;SDS011;10526;50.850;12.928;2023-04-15T02:53:51;17.08;;;9.52;;
20729;SDS011;10526;50.850;12.928;2023-04-15T02:58:13;18.65;;;11.07;;
20729;SDS011;10526;50.850;12.928;2023-04-15T03:02:38;17.52;;;10.50;;
20729;SDS011;10526;50.850;12.928;2023-04-15T03:07:02;16.13;;;9.80;;
20729;SDS011;10526;50.850;12.928;2023-04-15T03:11:25;18.60;;;10.25;;
20729;SDS011;10526;50.850;12.928;2023-04-15T03:15:50;15.60;;;8.80;;
20729;SDS011;10526;50.850;12.928;2023-04-15T03:20:15;16.25;;;9.40;;
20729;SDS011;10526;50.850;12.928;2023-04-15T03:24:37;16.52;;;9.57;;
20729;SDS011;10526;50.850;12.928;2023-04-15T03:29:00;17.08;;;9.63;;
20729;SDS011;10526;50.850;12.928;2023-04-15T03:33:22;16.85;;;9.55;;
20729;SDS011;10526;50.850;12.928;2023-04-15T03:37:44;17.38;;;9.25;;
20729;SDS011;10526;50.850;12.928;2023-04-15T03:42:06;16.95;;;9.73;;
20729;SDS011;10526;50.850;12.928;2023-04-15T03:46:29;17.70;;;9.77;;
20729;SDS011;10526;50.850;12.928;2023-04-15T03:50:51;17.58;;;9.82;;
20729;SDS011;10526;50.850;12.928;2023-04-15T03:55:13;22.38;;;12.02;;
20729;SDS011;10526;50.850;12.928;2023-04-15T03:59:36;18.30;;;10.38;;
20729;SDS011;10526;50.850;12.928;2023-04-15T04:03:58;17.02;;;9.23;;
20729;SDS011;10526;50.850;12.928;2023-04-15T04:08:20;18.58;;;10.25;;
20729;SDS011;10526;50.850;12.928;2023-04-15T04:12:42;15.65;;;8.60;;
20729;SDS011;10526;50.850;12.928;2023-04-15T04:17:05;13.18;;;7.15;;
20729;SDS011;10526;50.850;12.928;2023-04-15T04:21:27;13.60;;;6.72;;
20729;SDS011;10526;50.850;12.928;2023-04-15T04:25:49;14.73;;;7.28;;
20729;SDS011;10526;50.850;12.928;2023-04-15T04:30:12;14.77;;;7.78;;
20729;SDS011;10526;50.850;12.928;2023-04-15T04:34:34;15.20;;;7.93;;
20729;SDS011;10526;50.850;12.928;2023-04-15T04:38:57;16.23;;;8.73;;
20729;SDS011;10526;50.850;12.928;2023-04-15T04:43:19;16.73;;;8.98;;
20729;SDS011;10526;50.850;12.928;2023-04-15T04:47:42;17.48;;;9.57;;
20729;SDS011;10526;50.850;12.928;2023-04-15T04:52:04;16.60;;;8.85;;
20729;SDS011;10526;50.850;12.928;2023-04-15T04:56:27;17.20;;;8.50;;
20729;SDS011;10526;50.850;12.928;2023-04-15T05:00:49;15.13;;;8.18;;
20729;SDS011;10526;50.850;12.928;2023-04-15T05:05:12;16.13;;;8.60;;
20729;SDS011;10526;50.850;12.928;2023-04-15T05:09:34;15.95;;;8.27;;
20729;SDS011;10526;50.850;12.928;2023-04-15T05:13:57;17.42;;;8.75;;
20729;SDS011;10526;50.850;12.928;2023-04-15T05:18:22;16.77;;;8.55;;
20729;SDS011;10526;50.850;12.928;2023-04-15T05:22:44;17.33;;;8.70;;
20729;SDS011;10526;50.850;12.928;2023-04-15T05:27:06;17.40;;;8.60;;
20729;SDS011;10526;50.850;12.928;2023-04-15T05:31:31;15.45;;;7.45;;
20729;SDS011;10526;50.850;12.928;2023-04-15T05:35:53;15.23;;;7.95;;
20729;SDS011;10526;50.850;12.928;2023-04-15T05:40:16;14.55;;;7.20;;
20729;SDS011;10526;50.850;12.928;2023-04-15T05:44:38;16.60;;;8.35;;
20729;SDS011;10526;50.850;12.928;2023-04-15T05:49:01;13.95;;;6.60;;
20729;SDS011;10526;50.850;12.928;2023-04-15T05:53:23;14.65;;;6.40;;
20729;SDS011;10526;50.850;12.928;2023-04-15T05:57:45;13.40;;;5.82;;
20729;SDS011;10526;50.850;12.928;2023-04-15T06:02:08;11.45;;;5.30;;
20729;SDS011;10526;50.850;12.928;2023-04-15T06:06:33;12.18;;;4.85;;
20729;SDS011;10526;50.850;12.928;2023-04-15T06:10:57;13.55;;;5.10;;
20729;SDS011;10526;50.850;12.928;2023-04-15T06:15:23;11.02;;;4.32;;
20729;SDS011;10526;50.850;12.928;2023-04-15T06:19:48;11.07;;;4.75;;
20729;SDS011;10526;50.850;12.928;2023-04-15T06:24:15;9.75;;;4.10;;
20729;SDS011;10526;50.850;12.928;2023-04-15T06:28:37;7.45;;;3.53;;
20729;SDS011;10526;50.850;12.928;2023-04-15T06:33:00;9.50;;;4.30;;
20729;SDS011;10526;50.850;12.928;2023-04-15T06:37:25;9.63;;;3.70;;
20729;SDS011;10526;50.850;12.928;2023-04-15T06:41:47;9.43;;;3.80;;
20729;SDS011;10526;50.850;12.928;2023-04-15T06:46:12;8.20;;;3.45;;
20729;SDS011;10526;50.850;12.928;2023-04-15T06:50:36;10.40;;;3.15;;
20729;SDS011;10526;50.850;12.928;2023-04-15T06:55:00;7.75;;;2.90;;
20729;SDS011;10526;50.850;12.928;2023-04-15T06:59:23;5.78;;;2.50;;
20729;SDS011;10526;50.850;12.928;2023-04-15T07:03:45;6.05;;;2.78;;
20729;SDS011;10526;50.850;12.928;2023-04-15T07:08:07;4.13;;;2.22;;
20729;SDS011;10526;50.850;12.928;2023-04-15T07:12:31;3.17;;;2.00;;
20729;SDS011;10526;50.850;12.928;2023-04-15T07:16:55;5.03;;;2.38;;
20729;SDS011;10526;50.850;12.928;2023-04-15T07:21:18;2.70;;;1.70;;
20729;SDS011;10526;50.850;12.928;2023-04-15T07:25:40;3.08;;;1.80;;
20729;SDS011;10526;50.850;12.928;2023-04-15T07:30:02;5.65;;;2.65;;
20729;SDS011;10526;50.850;12.928;2023-04-15T07:34:24;2.85;;;1.60;;
20729;SDS011;10526;50.850;12.928;2023-04-15T07:38:52;2.80;;;1.90;;
20729;SDS011;10526;50.850;12.928;2023-04-15T07:43:15;3.10;;;2.05;;
20729;SDS011;10526;50.850;12.928;2023-04-15T07:47:38;4.50;;;2.22;;
20729;SDS011;10526;50.850;12.928;2023-04-15T07:52:01;3.22;;;1.98;;
20729;SDS011;10526;50.850;12.928;2023-04-15T07:56:23;5.43;;;2.58;;
20729;SDS011;10526;50.850;12.928;2023-04-15T08:00:46;2.92;;;1.80;;
20729;SDS011;10526;50.850;12.928;2023-04-15T08:05:10;5.32;;;2.00;;
20729;SDS011;10526;50.850;12.928;2023-04-15T08:09:34;2.30;;;1.80;;
20729;SDS011;10526;50.850;12.928;2023-04-15T08:13:57;2.00;;;1.50;;
20729;SDS011;10526;50.850;12.928;2023-04-15T08:18:20;2.42;;;1.75;;
20729;SDS011;10526;50.850;12.928;2023-04-15T08:22:43;6.45;;;2.55;;
20729;SDS011;10526;50.850;12.928;2023-04-15T08:27:08;6.53;;;1.75;;
20729;SDS011;10526;50.850;12.928;2023-04-15T08:31:30;2.20;;;1.35;;
20729;SDS011;10526;50.850;12.928;2023-04-15T08:35:53;3.85;;;1.65;;
20729;SDS011;10526;50.850;12.928;2023-04-15T08:40:15;3.97;;;1.85;;
20729;SDS011;10526;50.850;12.928;2023-04-15T08:44:37;2.22;;;1.40;;
20729;SDS011;10526;50.850;12.928;2023-04-15T08:49:02;6.90;;;2.10;;
20729;SDS011;10526;50.850;12.928;2023-04-15T08:53:26;3.70;;;1.52;;
20729;SDS011;10526;50.850;12.928;2023-04-15T08:57:51;4.60;;;1.70;;
20729;SDS011;10526;50.850;12.928;2023-04-15T09:02:13;3.05;;;1.60;;
20729;SDS011;10526;50.850;12.928;2023-04-15T09:06:35;2.95;;;1.48;;
20729;SDS011;10526;50.850;12.928;2023-04-15T09:11:00;4.30;;;1.65;;
20729;SDS011;10526;50.850;12.928;2023-04-15T09:15:24;3.33;;;1.50;;
20729;SDS011;10526;50.850;12.928;2023-04-15T09:19:56;3.28;;;1.50;;
20729;SDS011;10526;50.850;12.928;2023-04-15T09:24:37;1.50;;;1.35;;
20729;SDS011;10526;50.850;12.928;2023-04-15T09:29:10;2.92;;;1.65;;
20729;SDS011;10526;50.850;12.928;2023-04-15T09:33:36;2.65;;;1.52;;
20729;SDS011;10526;50.850;12.928;2023-04-15T09:38:19;3.90;;;1.48;;
20729;SDS011;10526;50.850;12.928;2023-04-15T09:42:54;2.63;;;1.58;;
20729;SDS011;10526;50.850;12.928;2023-04-15T09:47:29;2.55;;;1.45;;
20729;SDS011;10526;50.850;12.928;2023-04-15T09:51:59;4.15;;;1.77;;
20729;SDS011;10526;50.850;12.928;2023-04-15T09:56:36;5.05;;;2.20;;
20729;SDS011;10526;50.850;12.928;2023-04-15T10:01:02;4.78;;;2.00;;
20729;SDS011;10526;50.850;12.928;2023-04-15T10:05:26;8.77;;;2.10;;
20729;SDS011;10526;50.850;12.928;2023-04-15T10:09:50;2.33;;;1.58;;
20729;SDS011;10526;50.850;12.928;2023-04-15T10:14:13;3.28;;;1.70;;
20729;SDS011;10526;50.850;12.928;2023-04-15T10:18:41;5.20;;;1.70;;
20729;SDS011;10526;50.850;12.928;2023-04-15T10:23:05;8.90;;;2.83;;
20729;SDS011;10526;50.850;12.928;2023-04-15T10:27:31;6.35;;;2.90;;
20729;SDS011;10526;50.850;12.928;2023-04-15T10:31:54;15.45;;;2.60;;
20729;SDS011;10526;50.850;12.928;2023-04-15T10:36:17;5.47;;;2.30;;
20729;SDS011;10526;50.850;12.928;2023-04-15T10:40:40;3.30;;;2.00;;
20729;SDS011;10526;50.850;12.928;2023-04-15T10:45:03;6.00;;;2.10;;
20729;SDS011;10526;50.850;12.928;2023-04-15T10:49:42;3.97;;;1.83;;
20729;SDS011;10526;50.850;12.928;2023-04-15T10:54:15;3.33;;;1.90;;
20729;SDS011;10526;50.850;12.928;2023-04-15T10:58:45;9.68;;;2.47;;
20729;SDS011;10526;50.850;12.928;2023-04-15T11:03:07;8.57;;;2.58;;
20729;SDS011;10526;50.850;12.928;2023-04-15T11:12:08;4.80;;;2.40;;
20729;SDS011;10526;50.850;12.928;2023-04-15T11:16:32;6.22;;;2.58;;
20729;SDS011;10526;50.850;12.928;2023-04-15T11:21:05;4.75;;;2.45;;
20729;SDS011;10526;50.850;12.928;2023-04-15T11:25:32;3.05;;;2.10;;
20729;SDS011;10526;50.850;12.928;2023-04-15T11:29:57;3.55;;;2.15;;
20729;SDS011;10526;50.850;12.928;2023-04-15T11:34:23;5.03;;;2.80;;
20729;SDS011;10526;50.850;12.928;2023-04-15T11:38:45;4.30;;;2.55;;
20729;SDS011;10526;50.850;12.928;2023-04-15T11:43:09;7.43;;;2.90;;
20729;SDS011;10526;50.850;12.928;2023-04-15T11:47:41;4.82;;;2.88;;
20729;SDS011;10526;50.850;12.928;2023-04-15T11:52:09;4.50;;;2.50;;
20729;SDS011;10526;50.850;12.928;2023-04-15T11:56:31;5.60;;;3.10;;
20729;SDS011;10526;50.850;12.928;2023-04-15T12:00:54;7.60;;;3.58;;
20729;SDS011;10526;50.850;12.928;2023-04-15T12:05:19;5.10;;;2.83;;
20729;SDS011;10526;50.850;12.928;2023-04-15T12:09:41;6.93;;;2.97;;
20729;SDS011;10526;50.850;12.928;2023-04-15T12:18:30;5.75;;;2.80;;
20729;SDS011;10526;50.850;12.928;2023-04-15T12:22:52;8.98;;;3.40;;
20729;SDS011;10526;50.850;12.928;2023-04-15T12:27:25;5.35;;;3.22;;
20729;SDS011;10526;50.850;12.928;2023-04-15T12:31:54;9.13;;;3.35;;
20729;SDS011;10526;50.850;12.928;2023-04-15T12:36:30;8.50;;;4.18;;
20729;SDS011;10526;50.850;12.928;2023-04-15T12:40:59;7.03;;;3.67;;
20729;SDS011;10526;50.850;12.928;2023-04-15T12:45:21;7.32;;;3.90;;
20729;SDS011;10526;50.850;12.928;2023-04-15T12:49:43;8.55;;;3.95;;
20729;SDS011;10526;50.850;12.928;2023-04-15T12:54:07;7.65;;;3.55;;
20729;SDS011;10526;50.850;12.928;2023-04-15T12:58:29;7.45;;;3.60;;
20729;SDS011;10526;50.850;12.928;2023-04-15T13:02:51;6.43;;;3.63;;
20729;SDS011;10526;50.850;12.928;2023-04-15T13:07:14;6.80;;;3.55;;
20729;SDS011;10526;50.850;12.928;2023-04-15T13:11:37;7.47;;;3.72;;
20729;SDS011;10526;50.850;12.928;2023-04-15T13:15:59;8.48;;;4.57;;
20729;SDS011;10526;50.850;12.928;2023-04-15T13:20:21;9.32;;;5.00;;
20729;SDS011;10526;50.850;12.928;2023-04-15T13:24:44;9.90;;;4.70;;
20729;SDS011;10526;50.850;12.928;2023-04-15T13:29:06;9.18;;;4.63;;
20729;SDS011;10526;50.850;12.928;2023-04-15T13:33:28;9.25;;;4.72;;
20729;SDS011;10526;50.850;12.928;2023-04-15T13:37:50;9.68;;;5.10;;
20729;SDS011;10526;50.850;12.928;2023-04-15T13:42:15;11.52;;;5.57;;
20729;SDS011;10526;50.850;12.928;2023-04-15T13:46:37;12.07;;;5.88;;
20729;SDS011;10526;50.850;12.928;2023-04-15T13:51:00;10.05;;;5.25;;
20729;SDS011;10526;50.850;12.928;2023-04-15T13:55:23;10.30;;;5.35;;
20729;SDS011;10526;50.850;12.928;2023-04-15T13:59:47;11.88;;;5.60;;
20729;SDS011;10526;50.850;12.928;2023-04-15T14:04:09;10.70;;;5.85;;
20729;SDS011;10526;50.850;12.928;2023-04-15T14:08:31;9.75;;;5.53;;
20729;SDS011;10526;50.850;12.928;2023-04-15T14:12:54;10.25;;;5.15;;
20729;SDS011;10526;50.850;12.928;2023-04-15T14:17:17;11.05;;;5.35;;
20729;SDS011;10526;50.850;12.928;2023-04-15T14:21:39;9.60;;;5.20;;
20729;SDS011;10526;50.850;12.928;2023-04-15T14:26:02;10.73;;;5.47;;
20729;SDS011;10526;50.850;12.928;2023-04-15T14:30:24;9.60;;;5.20;;
20729;SDS011;10526;50.850;12.928;2023-04-15T14:34:47;10.02;;;5.10;;
20729;SDS011;10526;50.850;12.928;2023-04-15T14:39:09;9.10;;;5.10;;
20729;SDS011;10526;50.850;12.928;2023-04-15T14:43:33;8.43;;;4.85;;
20729;SDS011;10526;50.850;12.928;2023-04-15T14:47:55;11.05;;;4.93;;
20729;SDS011;10526;50.850;12.928;2023-04-15T14:52:18;10.32;;;5.63;;
20729;SDS011;10526;50.850;12.928;2023-04-15T14:56:40;11.30;;;5.55;;
20729;SDS011;10526;50.850;12.928;2023-04-15T15:01:02;11.35;;;5.70;;
20729;SDS011;10526;50.850;12.928;2023-04-15T15:05:25;10.70;;;6.00;;
20729;SDS011;10526;50.850;12.928;2023-04-15T15:09:48;12.45;;;6.22;;
20729;SDS011;10526;50.850;12.928;2023-04-15T15:14:10;10.05;;;5.47;;
20729;SDS011;10526;50.850;12.928;2023-04-15T15:18:32;12.25;;;6.10;;
20729;SDS011;10526;50.850;12.928;2023-04-15T15:22:56;18.10;;;5.65;;
20729;SDS011;10526;50.850;12.928;2023-04-15T15:27:19;11.90;;;6.32;;
20729;SDS011;10526;50.850;12.928;2023-04-15T15:31:41;13.57;;;6.10;;
20729;SDS011;10526;50.850;12.928;2023-04-15T15:36:03;10.52;;;5.75;;
20729;SDS011;10526;50.850;12.928;2023-04-15T15:40:26;12.25;;;6.18;;
20729;SDS011;10526;50.850;12.928;2023-04-15T15:44:48;12.40;;;6.38;;
20729;SDS011;10526;50.850;12.928;2023-04-15T15:49:13;10.38;;;5.43;;
20729;SDS011;10526;50.850;12.928;2023-04-15T15:53:35;11.15;;;5.95;;
20729;SDS011;10526;50.850;12.928;2023-04-15T15:57:57;12.52;;;6.60;;
20729;SDS011;10526;50.850;12.928;2023-04-15T16:02:19;13.00;;;6.13;;
20729;SDS011;10526;50.850;12.928;2023-04-15T16:07:02;10.65;;;6.00;;
20729;SDS011;10526;50.850;12.928;2023-04-15T16:11:24;10.85;;;5.20;;
20729;SDS011;10526;50.850;12.928;2023-04-15T16:15:47;12.00;;;5.75;;
20729;SDS011;10526;50.850;12.928;2023-04-15T16:20:29;11.13;;;5.68;;
20729;SDS011;10526;50.850;12.928;2023-04-15T16:24:52;11.20;;;6.40;;
20729;SDS011;10526;50.850;12.928;2023-04-15T16:29:14;11.10;;;6.13;;
20729;SDS011;10526;50.850;12.928;2023-04-15T16:33:37;12.57;;;6.97;;
20729;SDS011;10526;50.850;12.928;2023-04-15T16:37:59;12.00;;;6.53;;
20729;SDS011;10526;50.850;12.928;2023-04-15T16:42:21;13.57;;;7.35;;
20729;SDS011;10526;50.850;12.928;2023-04-15T16:46:43;11.98;;;6.65;;
20729;SDS011;10526;50.850;12.928;2023-04-15T16:51:06;12.07;;;6.50;;
20729;SDS011;10526;50.850;12.928;2023-04-15T16:55:28;12.27;;;7.00;;
20729;SDS011;10526;50.850;12.928;2023-04-15T16:59:50;12.80;;;6.72;;
20729;SDS011;10526;50.850;12.928;2023-04-15T17:04:13;13.25;;;7.32;;
20729;SDS011;10526;50.850;12.928;2023-04-15T17:08:35;14.00;;;7.88;;
20729;SDS011;10526;50.850;12.928;2023-04-15T17:12:57;21.73;;;12.98;;
20729;SDS011;10526;50.850;12.928;2023-04-15T17:17:20;15.75;;;8.85;;
20729;SDS011;10526;50.850;12.928;2023-04-15T17:21:43;14.23;;;8.13;;
20729;SDS011;10526;50.850;12.928;2023-04-15T17:26:05;13.23;;;7.60;;
20729;SDS011;10526;50.850;12.928;2023-04-15T17:30:27;15.95;;;9.13;;
20729;SDS011;10526;50.850;12.928;2023-04-15T17:34:49;17.83;;;10.25;;
20729;SDS011;10526;50.850;12.928;2023-04-15T17:39:11;19.50;;;13.48;;
20729;SDS011;10526;50.850;12.928;2023-04-15T17:43:35;21.65;;;14.00;;
20729;SDS011;10526;50.850;12.928;2023-04-15T17:47:57;22.23;;;13.57;;
20729;SDS011;10526;50.850;12.928;2023-04-15T17:52:22;20.00;;;12.27;;
20729;SDS011;10526;50.850;12.928;2023-04-15T17:56:44;21.33;;;12.57;;
20729;SDS011;10526;50.850;12.928;2023-04-15T18:01:06;23.90;;;14.93;;
20729;SDS011;10526;50.850;12.928;2023-04-15T18:05:29;20.90;;;12.85;;
20729;SDS011;10526;50.850;12.928;2023-04-15T18:09:51;20.33;;;12.35;;
20729;SDS011;10526;50.850;12.928;2023-04-15T18:14:16;19.70;;;12.85;;
20729;SDS011;10526;50.850;12.928;2023-04-15T18:18:54;20.88;;;13.15;;
20729;SDS011;10526;50.850;12.928;2023-04-15T18:23:16;20.70;;;11.95;;
20729;SDS011;10526;50.850;12.928;2023-04-15T18:27:38;20.15;;;12.40;;
20729;SDS011;10526;50.850;12.928;2023-04-15T18:32:01;20.90;;;13.15;;
20729;SDS011;10526;50.850;12.928;2023-04-15T18:36:24;21.27;;;13.57;;
20729;SDS011;10526;50.850;12.928;2023-04-15T18:40:47;23.10;;;15.27;;
20729;SDS011;10526;50.850;12.928;2023-04-15T18:45:09;24.30;;;14.13;;
20729;SDS011;10526;50.850;12.928;2023-04-15T18:49:31;22.70;;;14.75;;
20729;SDS011;10526;50.850;12.928;2023-04-15T18:53:54;25.17;;;15.43;;
20729;SDS011;10526;50.850;12.928;2023-04-15T18:58:16;23.35;;;15.27;;
20729;SDS011;10526;50.850;12.928;2023-04-15T19:02:38;26.85;;;17.02;;
20729;SDS011;10526;50.850;12.928;2023-04-15T19:07:00;29.77;;;17.60;;
20729;SDS011;10526;50.850;12.928;2023-04-15T19:11:23;24.73;;;15.93;;
20729;SDS011;10526;50.850;12.928;2023-04-15T19:15:46;30.20;;;18.42;;
20729;SDS011;10526;50.850;12.928;2023-04-15T19:20:09;27.13;;;17.65;;
20729;SDS011;10526;50.850;12.928;2023-04-15T19:24:31;28.98;;;17.38;;
20729;SDS011;10526;50.850;12.928;2023-04-15T19:28:53;26.42;;;16.10;;
20729;SDS011;10526;50.850;12.928;2023-04-15T19:33:18;27.27;;;16.77;;
20729;SDS011;10526;50.850;12.928;2023-04-15T19:37:40;27.27;;;17.08;;
20729;SDS011;10526;50.850;12.928;2023-04-15T19:42:03;30.15;;;19.00;;
20729;SDS011;10526;50.850;12.928;2023-04-15T19:46:26;29.75;;;18.35;;
20729;SDS011;10526;50.850;12.928;2023-04-15T19:50:49;30.52;;;18.38;;
20729;SDS011;10526;50.850;12.928;2023-04-15T19:55:11;30.42;;;18.42;;
20729;SDS011;10526;50.850;12.928;2023-04-15T19:59:33;31.23;;;19.65;;
20729;SDS011;10526;50.850;12.928;2023-04-15T20:03:55;30.48;;;18.48;;
20729;SDS011;10526;50.850;12.928;2023-04-15T20:08:17;27.70;;;18.63;;
20729;SDS011;10526;50.850;12.928;2023-04-15T20:12:39;30.88;;;18.27;;
20729;SDS011;10526;50.850;12.928;2023-04-15T20:17:13;28.55;;;18.75;;
20729;SDS011;10526;50.850;12.928;2023-04-15T20:21:35;30.60;;;18.88;;
20729;SDS011;10526;50.850;12.928;2023-04-15T20:26:00;30.98;;;20.20;;
20729;SDS011;10526;50.850;12.928;2023-04-15T20:30:22;32.85;;;21.15;;
20729;SDS011;10526;50.850;12.928;2023-04-15T20:34:44;33.58;;;20.75;;
20729;SDS011;10526;50.850;12.928;2023-04-15T20:39:07;30.77;;;20.20;;
20729;SDS011;10526;50.850;12.928;2023-04-15T20:43:29;35.30;;;22.25;;
20729;SDS011;10526;50.850;12.928;2023-04-15T20:47:52;34.40;;;22.15;;
20729;SDS011;10526;50.850;12.928;2023-04-15T20:52:15;34.83;;;20.75;;
20729;SDS011;10526;50.850;12.928;2023-04-15T20:56:38;34.95;;;21.15;;
20729;SDS011;10526;50.850;12.928;2023-04-15T21:01:00;33.80;;;21.50;;
20729;SDS011;10526;50.850;12.928;2023-04-15T21:05:22;39.08;;;24.25;;
20729;SDS011;10526;50.850;12.928;2023-04-15T21:09:44;42.20;;;25.50;;
20729;SDS011;10526;50.850;12.928;2023-04-15T21:14:07;39.83;;;25.48;;
20729;SDS011;10526;50.850;12.928;2023-04-15T21:18:29;33.70;;;22.65;;
20729;SDS011;10526;50.850;12.928;2023-04-15T21:22:51;35.47;;;22.05;;
20729;SDS011;10526;50.850;12.928;2023-04-15T21:27:13;37.95;;;23.95;;
20729;SDS011;10526;50.850;12.928;2023-04-15T21:31:35;35.45;;;22.80;;
20729;SDS011;10526;50.850;12.928;2023-04-15T21:35:57;34.22;;;22.25;;
20729;SDS011;10526;50.850;12.928;2023-04-15T21:40:19;35.03;;;22.15;;
20729;SDS011;10526;50.850;12.928;2023-04-15T21:44:41;35.50;;;22.45;;
20729;SDS011;10526;50.850;12.928;2023-04-15T21:49:03;34.55;;;22.17;;
20729;SDS011;10526;50.850;12.928;2023-04-15T21:53:27;36.00;;;23.55;;
20729;SDS011;10526;50.850;12.928;2023-04-15T21:57:49;38.38;;;24.13;;
20729;SDS011;10526;50.850;12.928;2023-04-15T22:02:11;39.40;;;25.42;;
20729;SDS011;10526;50.850;12.928;2023-04-15T22:06:33;40.88;;;25.13;;
20729;SDS011;10526;50.850;12.928;2023-04-15T22:10:56;40.15;;;25.00;;
20729;SDS011;10526;50.850;12.928;2023-04-15T22:15:18;39.05;;;26.15;;
20729;SDS011;10526;50.850;12.928;2023-04-15T22:19:40;37.40;;;24.92;;
20729;SDS011;10526;50.850;12.928;2023-04-15T22:24:02;37.33;;;24.98;;
20729;SDS011;10526;50.850;12.928;2023-04-15T22:28:45;41.38;;;25.60;;
20729;SDS011;10526;50.850;12.928;2023-04-15T22:33:07;39.20;;;25.35;;
20729;SDS011;10526;50.850;12.928;2023-04-15T22:37:31;37.08;;;25.02;;
20729;SDS011;10526;50.850;12.928;2023-04-15T22:41:53;38.33;;;24.50;;
20729;SDS011;10526;50.850;12.928;2023-04-15T22:46:17;41.60;;;25.05;;
20729;SDS011;10526;50.850;12.928;2023-04-15T22:50:39;40.42;;;24.88;;
20729;SDS011;10526;50.850;12.928;2023-04-15T22:55:02;40.38;;;24.77;;
20729;SDS011;10526;50.850;12.928;2023-04-15T22:59:25;37.38;;;22.77;;
20729;SDS011;10526;50.850;12.928;2023-04-15T23:03:48;35.72;;;23.33;;
20729;SDS011;10526;50.850;12.928;2023-04-15T23:08:17;46.55;;;29.02;;
20729;SDS011;10526;50.850;12.928;2023-04-15T23:12:39;41.90;;;26.35;;
20729;SDS011;10526;50.850;12.928;2023-04-15T23:17:01;38.53;;;24.70;;
20729;SDS011;10526;50.850;12.928;2023-04-15T23:21:24;40.10;;;25.40;;
20729;SDS011;10526;50.850;12.928;2023-04-15T23:25:47;37.40;;;24.02;;
20729;SDS011;10526;50.850;12.928;2023-04-15T23:30:10;40.17;;;23.80;;
20729;SDS011;10526;50.850;12.928;2023-04-15T23:34:32;38.58;;;23.52;;
20729;SDS011;10526;50.850;12.928;2023-04-15T23:38:54;39.78;;;24.25;;
20729;SDS011;10526;50.850;12.928;2023-04-15T23:43:17;40.75;;;24.25;;
20729;SDS011;10526;50.850;12.928;2023-04-15T23:47:39;43.95;;;27.35;;
20729;SDS011;10526;50.850;12.928;2023-04-15T23:52:01;47.28;;;30.27;;
20729;SDS011;10526;50.850;12.928;2023-04-15T23:56:24;38.22;;;24.05;;
